Startpagina
METAR-TAF:

METAR-TAF

Vliegvelden :

Épinal, Frankrijk

breedte: 48-19-31N, lengte: 6-04-00E, hoogte: 330 m

Actueel weer

Dit bericht is 23 minuten geleden gemaakt, om 23:30 UTC
Wind 8 kt uit het zuidwesten
Temperatuur 10°C
Vochtigheid 100%
Druk 1003 hPa
Zicht: 5000 m
lichte regen, nevel

METAR: LFSG 052330Z AUTO 23008KT 5000 -RA BR BKN027/// BKN033/// OVC039/// ///TCU 10/10 Q1003

Tijdstip: 01:53 (23:53 UTC)


TAF: ontbreekt

Waarnemingen en weersverwachtingen van meer dan 4000 vliegvelden (METAR en TAF).

De beschikbare stations zijn de gele en rode punten op de kaart.

Ga met uw muis naar het station om de naam te zien.

Klik dan om waarnemingen en weersverwachtingen te zien.

kaart wijzigen: klik op de groene knoppen met een zwart kruis om in te zoomen, op de groene knop met een streepje om uit te zoomen of op de groene pijlen voor aangrenzende kaarten.


METAR-TAF: